Terminal Aerodrome Forecast
Issued by NWS Charleston, WV

Home | Current Version | Previous Version | Text Only | Print | Product List | Glossary On
Versions: 1 2 3 4 5 6 7 8 9 10 11 12 13 14 15 16 17 18 19 20 21
000
FTUS41 KRLX 031120
TAFBKW
TAF
KBKW 031120Z 0312/0412 20004KT P6SM FEW050
     FM031800 26008KT P6SM FEW070
     FM032300 23007KT P6SM FEW050
     FM040500 24007KT P6SM VCTS BKN035CB
     FM040700 25007KT P6SM VCTS BKN025CB
     FM040900 25007KT P6SM VCTS BKN020CB
     FM041100 25006KT P6SM BKN010=

USA.gov is the U.S. government's official web portal to all federal, state and local government web resources and services.